Time;durP1;ratioP1;P1;durP2;ratioP2;P2;SDS_P1;SDS_P2;PMS_P1;PMS_P2;Temp;Humidity;BMP_temperature;BMP_pressure;BME280_temperature;BME280_humidity;BME280_pressure;Samples;Min_cycle;Max_cycle;Signal;HPM_P1;HPM_P2
2020/12/16 00:01:18;;;;;;;14.48;10.68;;;;;;;;;;5018806;28;20046;-81
2020/12/16 00:03:44;;;;;;;22.58;14.98;;;;;;;;;;5017764;28;20443;-82
2020/12/16 00:06:10;;;;;;;19.55;14.63;;;;;;;;;;5017279;28;20050;-82
2020/12/16 00:08:37;;;;;;;19.15;12.57;;;;;;;;;;5017904;28;20050;-81
2020/12/16 00:11:03;;;;;;;16.10;11.75;;;;;;;;;;5025557;28;20053;-81
2020/12/16 00:13:29;;;;;;;19.08;13.73;;;;;;;;;;5040931;28;20077;-80
2020/12/16 00:15:54;;;;;;;24.13;16.20;;;;;;;;;;5020595;28;20057;-80
2020/12/16 00:18:21;;;;;;;18.92;13.05;;;;;;;;;;5032045;28;20080;-80
2020/12/16 00:20:47;;;;;;;20.38;13.27;;;;;;;;;;5039873;28;20064;-80
2020/12/16 00:23:13;;;;;;;14.95;11.05;;;;;;;;;;5040432;28;20130;-80
2020/12/16 00:25:40;;;;;;;18.20;11.80;;;;;;;;;;5022778;28;20046;-80
2020/12/16 00:28:06;;;;;;;15.10;10.35;;;;;;;;;;5021068;28;20626;-80
2020/12/16 00:30:32;;;;;;;15.73;9.80;;;;;;;;;;5021949;28;20054;-80
2020/12/16 00:32:57;;;;;;;11.88;8.88;;;;;;;;;;5022897;28;20049;-81
2020/12/16 00:35:23;;;;;;;12.50;8.13;;;;;;;;;;5020057;28;20050;-81
2020/12/16 00:37:49;;;;;;;13.05;9.27;;;;;;;;;;5021403;28;20049;-80
2020/12/16 00:40:17;;;;;;;12.95;9.98;;;;;;;;;;5021105;28;20049;-80
2020/12/16 00:42:47;;;;;;;15.38;10.98;;;;;;;;;;5020608;28;20046;-81
2020/12/16 00:45:13;;;;;;;19.00;13.30;;;;;;;;;;5020539;28;20046;-81
2020/12/16 00:47:39;;;;;;;14.45;12.35;;;;;;;;;;5020891;28;20046;-80
2020/12/16 00:50:06;;;;;;;14.50;11.85;;;;;;;;;;5032364;28;20050;-80
2020/12/16 00:52:32;;;;;;;14.15;11.45;;;;;;;;;;5040470;28;20054;-80
2020/12/16 00:54:58;;;;;;;12.90;10.38;;;;;;;;;;5039427;28;20079;-80
2020/12/16 00:57:24;;;;;;;12.85;10.85;;;;;;;;;;5040697;28;20049;-80
2020/12/16 00:59:51;;;;;;;13.68;10.43;;;;;;;;;;5028806;28;20085;-82
2020/12/16 01:02:17;;;;;;;15.63;10.70;;;;;;;;;;5030111;28;20060;-80
2020/12/16 01:04:43;;;;;;;13.27;10.63;;;;;;;;;;5030794;28;20083;-80
2020/12/16 01:07:09;;;;;;;15.07;10.18;;;;;;;;;;5020573;28;20045;-81
2020/12/16 01:09:35;;;;;;;13.35;10.65;;;;;;;;;;5040579;28;20049;-81
2020/12/16 01:12:01;;;;;;;11.32;8.85;;;;;;;;;;5040454;28;20085;-81
2020/12/16 01:14:27;;;;;;;41.67;23.73;;;;;;;;;;5032328;28;20046;-82
2020/12/16 01:16:54;;;;;;;31.83;20.95;;;;;;;;;;5020880;28;20105;-81
2020/12/16 01:19:20;;;;;;;22.77;14.10;;;;;;;;;;5019758;28;20046;-80
2020/12/16 01:21:46;;;;;;;17.85;10.80;;;;;;;;;;5028915;28;20132;-81
2020/12/16 01:24:12;;;;;;;15.80;10.05;;;;;;;;;;5038220;28;20057;-80
2020/12/16 01:26:40;;;;;;;15.52;10.43;;;;;;;;;;5038447;28;20069;-82
2020/12/16 01:29:06;;;;;;;14.52;9.20;;;;;;;;;;5040022;28;20049;-80
2020/12/16 01:31:37;;;;;;;14.90;8.70;;;;;;;;;;5039550;28;20103;-80
2020/12/16 01:34:04;;;;;;;14.60;10.35;;;;;;;;;;5038006;28;20124;-81
2020/12/16 01:36:30;;;;;;;14.10;9.45;;;;;;;;;;5038092;28;20046;-80
2020/12/16 01:38:56;;;;;;;17.88;11.88;;;;;;;;;;5033585;28;20549;-80
2020/12/16 01:41:22;;;;;;;18.83;13.48;;;;;;;;;;5038933;28;20049;-80
2020/12/16 01:43:48;;;;;;;14.93;11.18;;;;;;;;;;5023959;28;20046;-80
2020/12/16 01:46:14;;;;;;;15.73;10.05;;;;;;;;;;5039112;28;20096;-79
2020/12/16 01:48:40;;;;;;;13.90;10.30;;;;;;;;;;5039307;28;20057;-80
2020/12/16 01:51:08;;;;;;;13.77;10.02;;;;;;;;;;5039216;28;20049;-80
2020/12/16 01:53:35;;;;;;;15.27;10.07;;;;;;;;;;5039828;28;20193;-80
2020/12/16 01:56:01;;;;;;;15.18;10.65;;;;;;;;;;5039232;28;20045;-80
2020/12/16 01:58:30;;;;;;;19.27;13.05;;;;;;;;;;5038685;28;20052;-80
2020/12/16 02:00:59;;;;;;;21.17;13.02;;;;;;;;;;5019143;28;20050;-80
2020/12/16 02:03:26;;;;;;;16.40;11.73;;;;;;;;;;5037899;28;20049;-80
2020/12/16 02:05:54;;;;;;;16.80;12.20;;;;;;;;;;5038469;28;20053;-80
2020/12/16 02:08:22;;;;;;;14.70;11.00;;;;;;;;;;5034769;28;20054;-80
2020/12/16 02:10:48;;;;;;;17.15;11.13;;;;;;;;;;5017782;28;20054;-80
2020/12/16 02:13:15;;;;;;;18.63;11.80;;;;;;;;;;5018361;28;20054;-80
2020/12/16 02:15:41;;;;;;;15.20;10.38;;;;;;;;;;5017892;28;20050;-80
2020/12/16 02:18:08;;;;;;;14.90;9.77;;;;;;;;;;5017247;28;20598;-80
2020/12/16 02:20:34;;;;;;;14.27;9.75;;;;;;;;;;5039077;28;20052;-80
2020/12/16 02:23:01;;;;;;;22.05;11.18;;;;;;;;;;5038605;28;20057;-80
2020/12/16 02:25:28;;;;;;;16.75;10.52;;;;;;;;;;5023775;28;20049;-80
2020/12/16 02:27:54;;;;;;;16.73;11.23;;;;;;;;;;5018362;28;20915;-80
2020/12/16 02:30:20;;;;;;;19.08;12.38;;;;;;;;;;5018579;28;20053;-80
2020/12/16 02:32:46;;;;;;;28.60;16.75;;;;;;;;;;5018008;28;20050;-80
2020/12/16 02:35:12;;;;;;;28.63;17.73;;;;;;;;;;5018789;28;20061;-80
2020/12/16 02:37:39;;;;;;;35.35;19.15;;;;;;;;;;5036337;28;20073;-79
2020/12/16 02:40:05;;;;;;;53.30;27.92;;;;;;;;;;5036757;28;20060;-80
2020/12/16 02:42:33;;;;;;;50.65;22.90;;;;;;;;;;5037726;28;20056;-80
2020/12/16 02:44:59;;;;;;;46.50;23.08;;;;;;;;;;5021997;28;20049;-80
2020/12/16 02:47:26;;;;;;;39.72;21.10;;;;;;;;;;5017970;28;20137;-80
2020/12/16 02:49:52;;;;;;;27.63;17.85;;;;;;;;;;5018425;28;20060;-79
2020/12/16 02:52:18;;;;;;;30.52;16.95;;;;;;;;;;5019308;28;20049;-80
2020/12/16 02:54:44;;;;;;;31.02;16.67;;;;;;;;;;5019316;28;20045;-80
2020/12/16 02:57:10;;;;;;;25.75;14.25;;;;;;;;;;5018561;28;20052;-80
2020/12/16 02:59:37;;;;;;;24.02;14.65;;;;;;;;;;5027229;28;20092;-80
2020/12/16 03:02:03;;;;;;;24.80;14.95;;;;;;;;;;5031014;28;20041;-80
2020/12/16 03:04:29;;;;;;;20.30;13.85;;;;;;;;;;5026742;28;20053;-80
2020/12/16 03:06:56;;;;;;;21.85;14.18;;;;;;;;;;5038921;28;20052;-80
2020/12/16 03:09:23;;;;;;;22.50;15.30;;;;;;;;;;5030594;28;20056;-80
2020/12/16 03:11:50;;;;;;;24.80;15.23;;;;;;;;;;5028268;28;20053;-80
2020/12/16 03:14:16;;;;;;;23.27;15.13;;;;;;;;;;5020592;28;20077;-79
2020/12/16 03:16:43;;;;;;;23.90;16.33;;;;;;;;;;5036691;28;20049;-81
2020/12/16 03:19:09;;;;;;;23.88;14.50;;;;;;;;;;5031899;28;20050;-80
2020/12/16 03:21:35;;;;;;;26.42;17.20;;;;;;;;;;5017481;28;20052;-81
2020/12/16 03:24:01;;;;;;;26.85;16.55;;;;;;;;;;5018892;28;20519;-80
2020/12/16 03:26:26;;;;;;;31.90;17.95;;;;;;;;;;5018677;28;20136;-80
2020/12/16 03:28:53;;;;;;;39.83;23.80;;;;;;;;;;5021181;28;20049;-80
2020/12/16 03:31:19;;;;;;;39.60;24.30;;;;;;;;;;5037727;28;20496;-80
2020/12/16 03:33:47;;;;;;;40.15;23.10;;;;;;;;;;5019422;28;20057;-80
2020/12/16 03:36:14;;;;;;;33.58;20.85;;;;;;;;;;5018907;28;20049;-80
2020/12/16 03:38:41;;;;;;;26.52;17.98;;;;;;;;;;5021740;28;20049;-80
2020/12/16 03:41:07;;;;;;;35.15;20.23;;;;;;;;;;5031597;28;20045;-81
2020/12/16 03:43:33;;;;;;;27.48;17.88;;;;;;;;;;5038352;28;20060;-80
2020/12/16 03:45:59;;;;;;;29.80;17.30;;;;;;;;;;5036829;28;20053;-80
2020/12/16 03:48:25;;;;;;;26.08;16.98;;;;;;;;;;5035120;28;20056;-80
2020/12/16 03:50:51;;;;;;;29.33;18.08;;;;;;;;;;5017276;28;20073;-80
2020/12/16 03:53:17;;;;;;;25.23;17.13;;;;;;;;;;5016864;28;20050;-80
2020/12/16 03:55:43;;;;;;;23.58;14.98;;;;;;;;;;5016950;28;20587;-81
2020/12/16 03:58:09;;;;;;;22.05;14.77;;;;;;;;;;5017444;28;20057;-80
2020/12/16 04:00:35;;;;;;;22.75;15.23;;;;;;;;;;5022563;28;20046;-80
2020/12/16 04:03:01;;;;;;;24.83;16.10;;;;;;;;;;5037591;28;20499;-80
2020/12/16 04:05:27;;;;;;;25.63;15.73;;;;;;;;;;5022262;28;20042;-80
2020/12/16 04:07:54;;;;;;;26.02;17.50;;;;;;;;;;5017466;28;20077;-80
2020/12/16 04:10:20;;;;;;;26.88;17.88;;;;;;;;;;5017940;28;20500;-80
2020/12/16 04:12:49;;;;;;;28.83;19.52;;;;;;;;;;5017195;28;20116;-80
2020/12/16 04:15:15;;;;;;;30.20;19.42;;;;;;;;;;5018440;28;20049;-80
2020/12/16 04:17:41;;;;;;;28.73;18.05;;;;;;;;;;5017639;28;20537;-80
2020/12/16 04:20:09;;;;;;;26.85;17.40;;;;;;;;;;5031309;28;20060;-80
2020/12/16 04:22:35;;;;;;;26.63;17.30;;;;;;;;;;5037641;28;20045;-80
2020/12/16 04:25:01;;;;;;;25.05;17.10;;;;;;;;;;5039155;28;20081;-80
2020/12/16 04:27:27;;;;;;;21.88;13.77;;;;;;;;;;5038008;28;20045;-80
2020/12/16 04:29:53;;;;;;;20.70;13.30;;;;;;;;;;5037026;28;20689;-80
2020/12/16 04:32:19;;;;;;;26.83;17.27;;;;;;;;;;5038018;28;20124;-80
2020/12/16 04:34:45;;;;;;;31.15;21.20;;;;;;;;;;5037816;28;20495;-80
2020/12/16 04:37:11;;;;;;;30.02;19.98;;;;;;;;;;5037339;28;20046;-79
2020/12/16 04:39:37;;;;;;;28.02;19.73;;;;;;;;;;5037328;28;20049;-80
2020/12/16 04:42:04;;;;;;;28.08;18.05;;;;;;;;;;5037566;28;20077;-80
2020/12/16 04:44:30;;;;;;;26.85;16.55;;;;;;;;;;5032403;28;20060;-80
2020/12/16 04:46:56;;;;;;;25.73;17.30;;;;;;;;;;5036415;28;20041;-79
2020/12/16 04:49:22;;;;;;;31.77;16.80;;;;;;;;;;5036339;28;20500;-80
2020/12/16 04:51:48;;;;;;;27.33;17.48;;;;;;;;;;5036827;28;20049;-79
2020/12/16 04:54:14;;;;;;;28.13;16.92;;;;;;;;;;5035579;28;20718;-80
2020/12/16 04:56:41;;;;;;;32.97;18.25;;;;;;;;;;5036976;28;20171;-81
2020/12/16 04:59:09;;;;;;;45.95;23.60;;;;;;;;;;5038869;28;20514;-80
2020/12/16 05:01:40;;;;;;;30.98;19.00;;;;;;;;;;5040188;28;20523;-80
2020/12/16 05:04:06;;;;;;;30.58;18.60;;;;;;;;;;5040251;28;20435;-80
2020/12/16 05:06:36;;;;;;;26.58;17.30;;;;;;;;;;5038502;28;20053;-80
2020/12/16 05:09:04;;;;;;;23.95;15.00;;;;;;;;;;5039993;28;20049;-80
2020/12/16 05:11:35;;;;;;;25.95;16.00;;;;;;;;;;5038388;28;20059;-79
2020/12/16 05:14:09;;;;;;;25.23;15.25;;;;;;;;;;5041466;28;20056;-80
2020/12/16 05:16:50;;;;;;;23.90;14.68;;;;;;;;;;5041270;28;20045;-80
2020/12/16 05:19:29;;;;;;;21.50;13.38;;;;;;;;;;5035933;28;20053;-80
2020/12/16 05:22:10;;;;;;;21.40;13.63;;;;;;;;;;5021756;28;20049;-80
2020/12/16 05:24:36;;;;;;;20.67;13.35;;;;;;;;;;5021571;28;20054;-80
2020/12/16 05:27:02;;;;;;;23.75;14.30;;;;;;;;;;5021172;28;20708;-79
2020/12/16 05:29:29;;;;;;;21.38;12.27;;;;;;;;;;5026201;28;20056;-79
2020/12/16 05:31:55;;;;;;;17.25;10.45;;;;;;;;;;5021095;28;20050;-80
2020/12/16 05:34:28;;;;;;;21.60;11.77;;;;;;;;;;5022446;28;20054;-79
2020/12/16 05:36:53;;;;;;;17.70;11.70;;;;;;;;;;5022126;28;20173;-79
2020/12/16 05:39:19;;;;;;;20.80;13.43;;;;;;;;;;5029688;28;20507;-79
2020/12/16 05:41:54;;;;;;;16.50;10.85;;;;;;;;;;5042648;28;20050;-79
2020/12/16 05:44:21;;;;;;;15.38;10.35;;;;;;;;;;5038214;28;20045;-79
2020/12/16 05:46:49;;;;;;;16.70;10.68;;;;;;;;;;5023297;28;20056;-79
2020/12/16 05:49:23;;;;;;;15.90;10.40;;;;;;;;;;5024176;28;20046;-79
2020/12/16 05:51:55;;;;;;;17.63;10.80;;;;;;;;;;5036184;28;20045;-79
2020/12/16 05:54:21;;;;;;;15.52;9.55;;;;;;;;;;5042207;28;20049;-79
2020/12/16 05:56:47;;;;;;;15.52;10.63;;;;;;;;;;5041229;28;20096;-79
2020/12/16 05:59:13;;;;;;;26.42;16.70;;;;;;;;;;5035751;28;20117;-78
2020/12/16 06:01:38;;;;;;;19.10;13.15;;;;;;;;;;5022128;28;20053;-78
2020/12/16 06:04:05;;;;;;;17.23;13.20;;;;;;;;;;5022575;28;20053;-78
2020/12/16 06:06:31;;;;;;;16.35;11.40;;;;;;;;;;5037338;28;20057;-78
2020/12/16 06:08:58;;;;;;;23.13;14.35;;;;;;;;;;5045361;28;20139;-78
2020/12/16 06:11:28;;;;;;;31.67;19.17;;;;;;;;;;5039430;28;20049;-78
2020/12/16 06:13:58;;;;;;;22.90;14.48;;;;;;;;;;5036040;28;20053;-78
2020/12/16 06:16:25;;;;;;;19.70;13.15;;;;;;;;;;5024320;28;20041;-78
2020/12/16 06:18:51;;;;;;;17.33;12.55;;;;;;;;;;5052966;28;20123;-80
2020/12/16 06:21:21;;;;;;;32.05;19.75;;;;;;;;;;5055853;28;20096;-78
2020/12/16 06:23:47;;;;;;;24.33;16.02;;;;;;;;;;5049643;28;21676;-78
2020/12/16 06:26:14;;;;;;;51.70;16.20;;;;;;;;;;5017298;28;20046;-78
2020/12/16 06:28:41;;;;;;;22.65;13.75;;;;;;;;;;5016935;28;20046;-78
2020/12/16 06:31:18;;;;;;;25.73;14.43;;;;;;;;;;5036204;28;20050;-80
2020/12/16 06:33:50;;;;;;;24.95;12.93;;;;;;;;;;5042033;28;20053;-78
2020/12/16 06:36:18;;;;;;;31.55;14.25;;;;;;;;;;5036652;28;20072;-78
2020/12/16 06:38:46;;;;;;;26.17;14.27;;;;;;;;;;5035098;28;20109;-78
2020/12/16 06:41:17;;;;;;;22.75;14.98;;;;;;;;;;5021615;28;20045;-79
2020/12/16 06:43:44;;;;;;;24.40;13.60;;;;;;;;;;5038343;28;20045;-78
2020/12/16 06:46:42;;;;;;;29.00;13.38;;;;;;;;;;5034015;28;20046;-78
2020/12/16 06:49:10;;;;;;;42.53;15.43;;;;;;;;;;5025762;28;20653;-79
2020/12/16 06:51:43;;;;;;;26.60;13.70;;;;;;;;;;5040807;28;20049;-79
2020/12/16 06:54:11;;;;;;;64.60;15.68;;;;;;;;;;5049369;28;20061;-78
2020/12/16 06:56:37;;;;;;;22.48;13.32;;;;;;;;;;5034440;28;20048;-78
2020/12/16 06:59:03;;;;;;;25.75;13.68;;;;;;;;;;5037630;28;20462;-79
2020/12/16 07:01:29;;;;;;;31.00;13.88;;;;;;;;;;5034186;28;20049;-78
2020/12/16 07:03:57;;;;;;;21.00;12.48;;;;;;;;;;5046037;28;20049;-77
2020/12/16 07:06:39;;;;;;;19.60;11.48;;;;;;;;;;5035088;28;20049;-78
2020/12/16 07:09:20;;;;;;;39.58;14.70;;;;;;;;;;5040739;28;20108;-79
2020/12/16 07:11:47;;;;;;;32.50;15.25;;;;;;;;;;5045093;28;20049;-78
2020/12/16 07:14:14;;;;;;;27.67;13.85;;;;;;;;;;5032431;28;20046;-78
2020/12/16 07:16:41;;;;;;;39.35;17.17;;;;;;;;;;5014152;28;20045;-78
2020/12/16 07:19:07;;;;;;;23.15;14.95;;;;;;;;;;5044932;28;20410;-77
2020/12/16 07:21:33;;;;;;;25.73;12.90;;;;;;;;;;5041304;28;20049;-77
2020/12/16 07:24:07;;;;;;;24.95;15.15;;;;;;;;;;5029739;28;20176;-77
2020/12/16 07:26:35;;;;;;;21.83;13.50;;;;;;;;;;5012027;28;20041;-78
2020/12/16 07:29:24;;;;;;;26.25;14.40;;;;;;;;;;5024215;28;20045;-78
2020/12/16 07:31:55;;;;;;;24.00;14.43;;;;;;;;;;5051248;28;20057;-77
2020/12/16 07:34:21;;;;;;;22.85;14.98;;;;;;;;;;5051387;28;20049;-77
2020/12/16 07:36:53;;;;;;;25.02;14.90;;;;;;;;;;5038960;28;20049;-78
2020/12/16 07:39:19;;;;;;;20.17;13.50;;;;;;;;;;5031584;28;20053;-78
2020/12/16 07:41:46;;;;;;;21.27;13.32;;;;;;;;;;5032724;28;20052;-78
2020/12/16 07:44:12;;;;;;;21.35;13.02;;;;;;;;;;5040024;28;20045;-78
2020/12/16 07:46:38;;;;;;;18.65;12.23;;;;;;;;;;5054093;28;20068;-78
2020/12/16 07:49:04;;;;;;;21.60;13.90;;;;;;;;;;5049744;28;20128;-78
2020/12/16 07:51:30;;;;;;;25.85;17.25;;;;;;;;;;5032169;28;20041;-78
2020/12/16 07:53:55;;;;;;;21.55;14.65;;;;;;;;;;5040810;28;20052;-78
2020/12/16 07:56:21;;;;;;;22.02;15.25;;;;;;;;;;5040061;28;20049;-78
2020/12/16 07:58:49;;;;;;;20.40;12.45;;;;;;;;;;5042669;28;20629;-78
2020/12/16 08:01:16;;;;;;;24.70;14.45;;;;;;;;;;5039689;28;20533;-78
2020/12/16 08:03:43;;;;;;;23.90;15.88;;;;;;;;;;5038963;28;20107;-78
2020/12/16 08:06:10;;;;;;;19.33;12.50;;;;;;;;;;5038086;28;20041;-78
2020/12/16 08:08:44;;;;;;;18.90;11.75;;;;;;;;;;5045645;28;20509;-78
2020/12/16 08:11:17;;;;;;;16.85;11.75;;;;;;;;;;5032801;28;20427;-79
2020/12/16 08:13:43;;;;;;;18.52;11.70;;;;;;;;;;5036445;28;20111;-78
2020/12/16 08:16:10;;;;;;;19.23;13.15;;;;;;;;;;5048184;28;20503;-78
2020/12/16 08:18:38;;;;;;;16.65;12.30;;;;;;;;;;5042016;28;20107;-77
2020/12/16 08:21:14;;;;;;;15.38;9.90;;;;;;;;;;5044319;28;20562;-78
2020/12/16 08:23:40;;;;;;;18.75;11.52;;;;;;;;;;5041274;28;20049;-78
2020/12/16 08:26:06;;;;;;;17.63;12.10;;;;;;;;;;5046032;28;20049;-79
2020/12/16 08:28:32;;;;;;;17.60;12.07;;;;;;;;;;5045709;28;20053;-78
2020/12/16 08:30:58;;;;;;;19.13;12.63;;;;;;;;;;5047949;28;20103;-78
2020/12/16 08:33:27;;;;;;;19.98;12.30;;;;;;;;;;5039639;28;20061;-78
2020/12/16 08:35:58;;;;;;;17.25;11.90;;;;;;;;;;5056438;28;20048;-78
2020/12/16 08:38:25;;;;;;;16.67;11.10;;;;;;;;;;5050353;28;20056;-79
2020/12/16 08:40:52;;;;;;;16.48;12.38;;;;;;;;;;5050174;28;20084;-79
2020/12/16 08:43:24;;;;;;;19.08;13.63;;;;;;;;;;5038423;28;20156;-79
2020/12/16 08:45:58;;;;;;;19.45;13.35;;;;;;;;;;5051919;28;20120;-78
2020/12/16 08:48:25;;;;;;;17.15;12.07;;;;;;;;;;5052427;28;20073;-79
2020/12/16 08:51:03;;;;;;;17.70;11.98;;;;;;;;;;5044662;28;20046;-79
2020/12/16 08:53:29;;;;;;;17.73;12.95;;;;;;;;;;5038376;28;20462;-78
2020/12/16 08:55:55;;;;;;;17.40;12.23;;;;;;;;;;5036498;28;20046;-78
2020/12/16 08:58:21;;;;;;;17.65;12.73;;;;;;;;;;5039189;28;20124;-78
2020/12/16 09:00:47;;;;;;;20.83;14.60;;;;;;;;;;5051158;28;20443;-78
2020/12/16 09:03:13;;;;;;;20.10;13.52;;;;;;;;;;5040592;28;20488;-78
2020/12/16 09:05:41;;;;;;;17.70;13.10;;;;;;;;;;5042502;28;20048;-78
2020/12/16 09:08:09;;;;;;;21.42;13.85;;;;;;;;;;5044907;28;20048;-78
2020/12/16 09:10:36;;;;;;;19.77;14.18;;;;;;;;;;5037181;28;20061;-78
2020/12/16 09:13:12;;;;;;;19.50;13.85;;;;;;;;;;5043451;28;20052;-78
2020/12/16 09:15:39;;;;;;;19.00;13.32;;;;;;;;;;5039614;28;20051;-78
2020/12/16 09:18:05;;;;;;;17.38;13.20;;;;;;;;;;5045082;28;20049;-78
2020/12/16 09:20:31;;;;;;;17.92;13.57;;;;;;;;;;5042465;28;20439;-78
2020/12/16 09:22:58;;;;;;;19.25;15.45;;;;;;;;;;5036516;28;20049;-80
2020/12/16 09:25:25;;;;;;;24.25;17.00;;;;;;;;;;5035236;28;20068;-78
2020/12/16 09:27:55;;;;;;;23.55;16.48;;;;;;;;;;5035663;28;20060;-79
2020/12/16 09:30:28;;;;;;;26.52;17.63;;;;;;;;;;5035956;28;20052;-78
2020/12/16 09:32:54;;;;;;;23.60;16.63;;;;;;;;;;5026988;28;20046;-79
2020/12/16 09:35:20;;;;;;;25.88;17.23;;;;;;;;;;5016123;28;20060;-79
2020/12/16 09:37:46;;;;;;;19.33;14.07;;;;;;;;;;5015558;28;20046;-79
2020/12/16 09:40:15;;;;;;;23.10;15.80;;;;;;;;;;5016175;28;20057;-79
2020/12/16 09:42:53;;;;;;;23.67;15.88;;;;;;;;;;5023351;28;20107;-79
2020/12/16 09:45:20;;;;;;;23.65;16.42;;;;;;;;;;5051279;28;20049;-79
2020/12/16 09:47:48;;;;;;;25.23;16.30;;;;;;;;;;5049632;28;20563;-79
2020/12/16 09:50:14;;;;;;;26.08;15.95;;;;;;;;;;5042900;28;20049;-79
2020/12/16 09:52:40;;;;;;;25.65;17.60;;;;;;;;;;5038157;28;20049;-79
2020/12/16 09:55:16;;;;;;;25.60;16.23;;;;;;;;;;5038421;28;20045;-79
2020/12/16 09:57:42;;;;;;;22.33;15.33;;;;;;;;;;5041658;28;21369;-79
2020/12/16 10:00:09;;;;;;;24.63;15.50;;;;;;;;;;5042140;28;20287;-79
2020/12/16 10:02:35;;;;;;;20.27;15.05;;;;;;;;;;5046422;28;20060;-79
2020/12/16 10:05:02;;;;;;;20.05;14.30;;;;;;;;;;5047543;28;20045;-79
2020/12/16 10:07:31;;;;;;;19.48;14.45;;;;;;;;;;5046994;28;20056;-79
2020/12/16 10:09:57;;;;;;;21.30;13.48;;;;;;;;;;5039324;28;20076;-79
2020/12/16 10:12:24;;;;;;;18.92;14.32;;;;;;;;;;5054452;28;20466;-79
2020/12/16 10:14:51;;;;;;;18.30;13.15;;;;;;;;;;5042068;28;20042;-79
2020/12/16 10:17:20;;;;;;;19.40;13.80;;;;;;;;;;5050950;28;20052;-79
2020/12/16 10:19:46;;;;;;;24.58;17.50;;;;;;;;;;5050939;28;20063;-79
2020/12/16 10:22:12;;;;;;;30.15;19.15;;;;;;;;;;5040171;28;20045;-79
2020/12/16 10:24:38;;;;;;;24.92;17.58;;;;;;;;;;5033691;28;20049;-79
2020/12/16 10:27:04;;;;;;;31.05;22.30;;;;;;;;;;5043692;28;20045;-79
2020/12/16 10:29:31;;;;;;;25.42;17.73;;;;;;;;;;5046342;28;20050;-79
2020/12/16 10:31:57;;;;;;;21.40;15.00;;;;;;;;;;5020634;28;20046;-81
2020/12/16 10:34:23;;;;;;;18.38;13.77;;;;;;;;;;5040257;28;20056;-79
2020/12/16 10:36:50;;;;;;;18.00;13.55;;;;;;;;;;5041607;28;20056;-80
2020/12/16 10:39:16;;;;;;;20.83;14.45;;;;;;;;;;5048174;28;20049;-81
2020/12/16 10:41:43;;;;;;;18.33;12.98;;;;;;;;;;5052115;28;20478;-79
2020/12/16 10:44:09;;;;;;;17.58;13.27;;;;;;;;;;5053301;28;20132;-80
2020/12/16 10:46:36;;;;;;;18.52;12.85;;;;;;;;;;5052788;28;20049;-79
2020/12/16 10:49:02;;;;;;;19.90;11.82;;;;;;;;;;5053524;28;20056;-79
2020/12/16 10:51:28;;;;;;;20.92;13.43;;;;;;;;;;5052395;28;20049;-79
2020/12/16 10:53:54;;;;;;;16.75;11.93;;;;;;;;;;5037696;28;20081;-79
2020/12/16 10:56:20;;;;;;;18.88;12.50;;;;;;;;;;5023743;28;20396;-79
2020/12/16 10:58:48;;;;;;;16.70;12.32;;;;;;;;;;5045016;28;20503;-79
2020/12/16 11:01:14;;;;;;;16.73;11.57;;;;;;;;;;5051736;28;20057;-79
2020/12/16 11:03:40;;;;;;;22.30;14.35;;;;;;;;;;5037564;28;20093;-80
2020/12/16 11:06:06;;;;;;;19.92;13.57;;;;;;;;;;5030991;28;20185;-80
2020/12/16 11:08:33;;;;;;;17.58;11.82;;;;;;;;;;5031508;28;20061;-79
2020/12/16 11:10:59;;;;;;;18.38;13.23;;;;;;;;;;5031141;28;20049;-80
2020/12/16 11:13:25;;;;;;;17.75;12.43;;;;;;;;;;5046399;28;20084;-80
2020/12/16 11:15:52;;;;;;;18.10;12.90;;;;;;;;;;5042361;28;20076;-80
2020/12/16 11:18:18;;;;;;;17.95;12.77;;;;;;;;;;5051129;28;20056;-80
2020/12/16 11:20:44;;;;;;;18.20;13.27;;;;;;;;;;5051765;28;20049;-80
2020/12/16 11:23:10;;;;;;;16.92;12.43;;;;;;;;;;5041541;28;20415;-80
2020/12/16 11:25:36;;;;;;;14.38;11.60;;;;;;;;;;5044829;28;20044;-80
2020/12/16 11:28:02;;;;;;;17.40;13.18;;;;;;;;;;5043538;28;20454;-79
2020/12/16 11:30:28;;;;;;;15.02;11.65;;;;;;;;;;5028202;28;20045;-78
2020/12/16 11:32:55;;;;;;;16.48;10.90;;;;;;;;;;5048331;28;20049;-78
2020/12/16 11:35:21;;;;;;;14.55;11.68;;;;;;;;;;5042990;28;20045;-77
2020/12/16 11:37:49;;;;;;;16.08;11.43;;;;;;;;;;5029952;28;20077;-79
2020/12/16 11:40:15;;;;;;;14.65;10.85;;;;;;;;;;5029104;28;20414;-79
2020/12/16 11:42:43;;;;;;;15.02;10.90;;;;;;;;;;5030272;28;20056;-79
2020/12/16 11:45:11;;;;;;;16.38;10.52;;;;;;;;;;5043993;28;20057;-79
2020/12/16 11:47:39;;;;;;;14.13;10.38;;;;;;;;;;5042509;28;20092;-79
2020/12/16 11:50:07;;;;;;;17.27;12.20;;;;;;;;;;5030238;28;20059;-79
2020/12/16 11:52:33;;;;;;;13.50;11.02;;;;;;;;;;5030767;28;20049;-79
2020/12/16 11:54:59;;;;;;;17.95;11.90;;;;;;;;;;5030653;28;20154;-80
2020/12/16 11:57:25;;;;;;;16.60;12.20;;;;;;;;;;5033103;28;20504;-80
2020/12/16 11:59:51;;;;;;;15.02;11.27;;;;;;;;;;5029788;28;20153;-80
2020/12/16 12:02:17;;;;;;;13.88;10.10;;;;;;;;;;5034626;28;20049;-78
2020/12/16 12:04:43;;;;;;;15.95;10.27;;;;;;;;;;5037926;28;20064;-78
2020/12/16 12:07:10;;;;;;;14.40;10.25;;;;;;;;;;5050681;28;20408;-80
2020/12/16 12:09:36;;;;;;;14.48;10.63;;;;;;;;;;5039768;28;20049;-80
2020/12/16 12:12:02;;;;;;;16.23;11.32;;;;;;;;;;5049477;28;20053;-78
2020/12/16 12:14:30;;;;;;;14.45;10.88;;;;;;;;;;5056272;28;20460;-79
2020/12/16 12:16:56;;;;;;;14.60;10.57;;;;;;;;;;5054692;28;20128;-78
2020/12/16 12:19:22;;;;;;;11.30;9.10;;;;;;;;;;5053581;28;20142;-79
2020/12/16 12:21:48;;;;;;;12.13;9.85;;;;;;;;;;5053247;28;20479;-78
2020/12/16 12:24:15;;;;;;;15.40;10.05;;;;;;;;;;5053607;28;20072;-78
2020/12/16 12:26:41;;;;;;;14.02;10.27;;;;;;;;;;5015947;28;20124;-79
2020/12/16 12:29:07;;;;;;;13.77;10.15;;;;;;;;;;5021975;28;20494;-79
2020/12/16 12:31:33;;;;;;;16.75;11.55;;;;;;;;;;5047126;28;20052;-78
2020/12/16 12:33:59;;;;;;;13.95;10.75;;;;;;;;;;5035813;28;20053;-78
2020/12/16 12:36:25;;;;;;;14.23;9.90;;;;;;;;;;5035969;28;20042;-79
2020/12/16 12:38:52;;;;;;;12.57;9.60;;;;;;;;;;5043194;28;20041;-78
2020/12/16 12:41:18;;;;;;;15.00;9.43;;;;;;;;;;5040573;28;20111;-78
2020/12/16 12:43:44;;;;;;;13.18;10.32;;;;;;;;;;5037315;28;20100;-77
2020/12/16 12:46:10;;;;;;;15.20;10.52;;;;;;;;;;5039307;28;20049;-78
2020/12/16 12:48:36;;;;;;;13.07;10.30;;;;;;;;;;5053821;28;20084;-77
2020/12/16 12:51:04;;;;;;;12.77;10.18;;;;;;;;;;5035041;28;20057;-78
2020/12/16 12:53:30;;;;;;;13.45;10.05;;;;;;;;;;5053984;28;20514;-79
2020/12/16 12:55:56;;;;;;;14.13;10.32;;;;;;;;;;5053705;28;20056;-79
2020/12/16 12:58:23;;;;;;;15.02;9.77;;;;;;;;;;5042675;28;20049;-78
2020/12/16 13:00:49;;;;;;;12.60;9.40;;;;;;;;;;5039082;28;20140;-78
2020/12/16 13:03:15;;;;;;;13.65;9.70;;;;;;;;;;5035225;28;20045;-78
2020/12/16 13:05:41;;;;;;;13.30;9.48;;;;;;;;;;5041774;28;20049;-78
2020/12/16 13:08:08;;;;;;;13.32;9.63;;;;;;;;;;5056937;28;20048;-79
2020/12/16 13:10:34;;;;;;;13.27;10.02;;;;;;;;;;5054846;28;20106;-80
2020/12/16 13:13:00;;;;;;;11.50;9.68;;;;;;;;;;5054420;28;20473;-79
2020/12/16 13:15:26;;;;;;;13.15;9.98;;;;;;;;;;5054601;28;20049;-78
2020/12/16 13:17:52;;;;;;;12.73;10.32;;;;;;;;;;5054040;28;20159;-79
2020/12/16 13:20:18;;;;;;;12.98;10.05;;;;;;;;;;5055967;28;20053;-79
2020/12/16 13:22:44;;;;;;;12.73;10.40;;;;;;;;;;5056573;28;20048;-79
2020/12/16 13:25:10;;;;;;;13.30;10.57;;;;;;;;;;5038603;28;20049;-79
2020/12/16 13:27:37;;;;;;;13.70;10.73;;;;;;;;;;5044382;28;20068;-78
2020/12/16 13:30:04;;;;;;;15.15;11.35;;;;;;;;;;5046268;28;20208;-78
2020/12/16 13:32:31;;;;;;;14.20;10.70;;;;;;;;;;5038590;28;20073;-79
2020/12/16 13:34:57;;;;;;;17.73;10.50;;;;;;;;;;5036349;28;20053;-78
2020/12/16 13:37:23;;;;;;;13.35;10.07;;;;;;;;;;5032310;28;20053;-78
2020/12/16 13:39:49;;;;;;;13.32;9.25;;;;;;;;;;5034546;28;20053;-78
2020/12/16 13:42:15;;;;;;;12.93;10.02;;;;;;;;;;5035518;28;20518;-78
2020/12/16 13:44:42;;;;;;;11.85;9.25;;;;;;;;;;5035226;28;20053;-78
2020/12/16 13:47:08;;;;;;;12.70;10.23;;;;;;;;;;5033427;28;20049;-78
2020/12/16 13:49:35;;;;;;;18.58;10.63;;;;;;;;;;5033765;28;20060;-78
2020/12/16 13:52:02;;;;;;;12.00;9.85;;;;;;;;;;5032237;28;20045;-78
2020/12/16 13:54:29;;;;;;;14.13;10.00;;;;;;;;;;5013650;28;20042;-77
2020/12/16 13:56:55;;;;;;;12.18;9.68;;;;;;;;;;5013132;28;20046;-78
2020/12/16 13:59:21;;;;;;;15.25;9.80;;;;;;;;;;5029514;28;20061;-78
2020/12/16 14:01:47;;;;;;;12.50;9.32;;;;;;;;;;5032368;28;20635;-77
2020/12/16 14:04:13;;;;;;;15.57;11.00;;;;;;;;;;5033403;28;20551;-78
2020/12/16 14:06:42;;;;;;;14.80;10.75;;;;;;;;;;5032419;28;20048;-78
2020/12/16 14:09:08;;;;;;;13.55;11.18;;;;;;;;;;5033333;28;20050;-78
2020/12/16 14:11:34;;;;;;;13.50;11.18;;;;;;;;;;5032896;28;20045;-79
2020/12/16 14:14:00;;;;;;;17.02;11.90;;;;;;;;;;5033688;28;20100;-78
2020/12/16 14:16:26;;;;;;;15.90;11.52;;;;;;;;;;5033429;28;20099;-78
2020/12/16 14:18:52;;;;;;;15.90;11.88;;;;;;;;;;5046561;28;20049;-78